createdAt,value
2017-12-30T00:00:01.936Z,81.90
2017-12-30T00:02:29.430Z,82.50
2017-12-30T00:04:57.709Z,81.00
2017-12-30T00:07:25.935Z,81.60
2017-12-30T00:09:53.383Z,81.60
2017-12-30T00:12:20.880Z,81.00
2017-12-30T00:14:48.363Z,80.80
2017-12-30T00:17:15.808Z,81.00
2017-12-30T00:19:44.057Z,80.90
2017-12-30T00:22:11.554Z,80.80
2017-12-30T00:24:39.000Z,80.50
2017-12-30T00:27:06.501Z,80.20
2017-12-30T00:29:34.002Z,79.80
2017-12-30T00:32:02.261Z,78.70
2017-12-30T00:34:29.703Z,78.70
2017-12-30T00:36:57.194Z,78.80
2017-12-30T00:39:25.461Z,79.10
2017-12-30T00:41:52.937Z,79.00
2017-12-30T00:44:21.151Z,79.10
2017-12-30T00:46:48.638Z,79.00
2017-12-30T00:49:16.125Z,78.50
2017-12-30T00:51:43.563Z,79.10
2017-12-30T00:54:11.794Z,79.00
2017-12-30T00:56:39.292Z,78.90
2017-12-30T00:59:06.744Z,77.80
2017-12-30T01:01:34.195Z,78.10
2017-12-30T01:04:01.641Z,78.00
2017-12-30T01:06:29.091Z,77.40
2017-12-30T01:08:56.543Z,76.60
2017-12-30T01:11:23.987Z,76.20
2017-12-30T01:13:52.114Z,76.30
2017-12-30T01:16:21.207Z,75.00
2017-12-30T01:18:49.427Z,75.20
2017-12-30T01:21:16.920Z,75.10
2017-12-30T01:23:44.373Z,74.70
2017-12-30T01:26:11.816Z,74.50
2017-12-30T01:28:39.283Z,74.60
2017-12-30T01:31:07.519Z,74.20
2017-12-30T01:33:34.987Z,74.20
2017-12-30T01:36:02.500Z,74.50
2017-12-30T01:38:30.730Z,75.20
2017-12-30T01:40:58.176Z,75.10
2017-12-30T01:43:25.709Z,75.10
2017-12-30T01:45:53.167Z,75.30
2017-12-30T01:48:20.631Z,76.00
2017-12-30T01:50:48.105Z,76.60
2017-12-30T01:53:15.551Z,77.10
2017-12-30T01:55:43.013Z,77.50
2017-12-30T01:58:10.454Z,77.90
2017-12-30T02:00:37.902Z,78.30
2017-12-30T02:03:05.353Z,78.50
2017-12-30T02:05:32.810Z,79.00
2017-12-30T02:08:00.270Z,79.10
2017-12-30T02:10:27.728Z,79.30
2017-12-30T02:12:55.179Z,79.60
2017-12-30T02:15:22.634Z,80.10
2017-12-30T02:17:50.089Z,79.80
2017-12-30T02:20:17.547Z,79.60
2017-12-30T02:22:44.988Z,79.20
2017-12-30T02:25:12.436Z,78.70
2017-12-30T02:27:39.882Z,78.80
2017-12-30T02:30:08.097Z,80.00
2017-12-30T02:32:35.545Z,80.00
2017-12-30T02:35:03.007Z,79.70
2017-12-30T02:37:30.459Z,78.80
2017-12-30T02:39:57.911Z,79.20
2017-12-30T02:42:25.371Z,78.60
2017-12-30T02:44:52.828Z,77.90
2017-12-30T02:47:21.047Z,76.80
2017-12-30T02:49:48.502Z,76.70
2017-12-30T02:52:15.951Z,76.00
2017-12-30T02:54:43.403Z,76.30
2017-12-30T02:57:10.855Z,75.40
2017-12-30T02:59:38.300Z,75.60
2017-12-30T03:02:05.768Z,75.20
2017-12-30T03:04:33.208Z,74.90
2017-12-30T03:07:00.656Z,74.90
2017-12-30T03:09:28.111Z,75.40
2017-12-30T03:11:55.562Z,75.90
2017-12-30T03:14:23.019Z,75.70
2017-12-30T03:16:50.483Z,76.00
2017-12-30T03:19:17.927Z,75.90
2017-12-30T03:21:45.384Z,75.90
2017-12-30T03:24:12.836Z,76.00
2017-12-30T03:26:40.294Z,75.80
2017-12-30T03:29:07.751Z,76.30
2017-12-30T03:31:35.206Z,76.50
2017-12-30T03:34:02.667Z,76.90
2017-12-30T03:36:30.120Z,78.00
2017-12-30T03:38:57.579Z,78.60
2017-12-30T03:41:25.031Z,79.20
2017-12-30T03:43:52.487Z,79.50
2017-12-30T03:46:19.958Z,78.70
2017-12-30T03:48:47.419Z,78.10
2017-12-30T03:51:14.879Z,78.20
2017-12-30T03:53:42.330Z,78.40
2017-12-30T03:56:09.786Z,78.10
2017-12-30T03:58:37.234Z,78.30
2017-12-30T04:01:04.705Z,78.40
2017-12-30T04:03:32.151Z,78.60
2017-12-30T04:05:59.611Z,78.40
2017-12-30T04:08:27.070Z,78.40
2017-12-30T04:10:54.514Z,78.70
2017-12-30T04:13:21.969Z,79.30
2017-12-30T04:15:49.416Z,79.80
2017-12-30T04:18:16.871Z,79.90
2017-12-30T04:20:44.327Z,79.70
2017-12-30T04:23:11.783Z,79.50
2017-12-30T04:25:39.245Z,79.40
2017-12-30T04:28:06.695Z,79.00
2017-12-30T04:30:34.152Z,78.70
2017-12-30T04:33:01.614Z,78.50
2017-12-30T04:35:29.067Z,78.40
2017-12-30T04:37:56.523Z,77.90
2017-12-30T04:40:23.975Z,78.20
2017-12-30T04:42:51.440Z,78.40
2017-12-30T04:45:18.887Z,78.90
2017-12-30T04:47:46.347Z,79.10
2017-12-30T04:50:13.800Z,78.60
2017-12-30T04:52:41.264Z,78.10
2017-12-30T04:55:08.714Z,78.40
2017-12-30T04:57:36.171Z,78.30
2017-12-30T05:00:03.626Z,78.90
2017-12-30T05:02:31.078Z,79.40
2017-12-30T05:04:58.519Z,78.80
2017-12-30T05:07:25.979Z,79.30
2017-12-30T05:09:53.426Z,78.80
2017-12-30T05:12:20.906Z,79.20
2017-12-30T05:14:48.363Z,78.70
2017-12-30T05:17:15.820Z,78.20
2017-12-30T05:19:43.271Z,78.40
2017-12-30T05:22:10.726Z,78.10
2017-12-30T05:24:38.190Z,78.30
2017-12-30T05:27:05.642Z,78.30
2017-12-30T05:29:33.100Z,78.20
2017-12-30T05:32:01.315Z,77.50
2017-12-30T05:34:28.759Z,77.50
2017-12-30T05:36:56.199Z,77.10
2017-12-30T05:39:23.642Z,77.20
2017-12-30T05:41:51.095Z,76.20
2017-12-30T05:44:18.558Z,75.70
2017-12-30T05:46:46.010Z,76.00
2017-12-30T05:49:13.463Z,76.70
2017-12-30T05:51:40.918Z,77.80
2017-12-30T05:54:08.374Z,79.10
2017-12-30T05:56:35.830Z,79.90
2017-12-30T05:59:03.286Z,80.40
2017-12-30T06:01:30.747Z,80.20
2017-12-30T06:03:58.210Z,79.80
2017-12-30T06:06:25.655Z,79.10
2017-12-30T06:08:53.110Z,78.30
2017-12-30T06:11:20.568Z,77.90
2017-12-30T06:13:48.023Z,77.10
2017-12-30T06:16:15.478Z,75.90
2017-12-30T06:18:42.940Z,75.20
2017-12-30T06:21:10.392Z,75.40
2017-12-30T06:23:37.848Z,75.00
2017-12-30T06:26:05.302Z,75.90
2017-12-30T06:28:33.019Z,76.20
2017-12-30T06:31:00.462Z,76.80
2017-12-30T06:33:27.919Z,78.30
2017-12-30T06:35:55.374Z,78.00
2017-12-30T06:38:22.827Z,78.80
2017-12-30T06:40:50.300Z,77.80
2017-12-30T06:43:17.743Z,78.90
2017-12-30T06:45:45.203Z,79.60
2017-12-30T06:48:12.655Z,79.10
2017-12-30T06:50:40.121Z,79.40
2017-12-30T06:53:07.575Z,79.50
2017-12-30T06:55:35.031Z,80.40
2017-12-30T06:58:02.487Z,80.90
2017-12-30T07:00:29.943Z,80.70
2017-12-30T07:02:57.391Z,81.40
2017-12-30T07:05:24.843Z,80.90
2017-12-30T07:07:52.304Z,82.00
2017-12-30T07:10:19.755Z,81.60
2017-12-30T07:12:47.199Z,82.10
2017-12-30T07:15:14.656Z,81.30
2017-12-30T07:17:42.111Z,81.80
2017-12-30T07:20:09.569Z,81.50
2017-12-30T07:22:37.027Z,82.50
2017-12-30T07:25:04.492Z,81.50
2017-12-30T07:27:31.947Z,82.30
2017-12-30T07:29:59.403Z,81.80
2017-12-30T07:32:26.862Z,82.10
2017-12-30T07:34:54.321Z,82.50
2017-12-30T07:37:21.773Z,82.40
2017-12-30T07:39:49.231Z,83.10
2017-12-30T07:42:16.687Z,83.20
2017-12-30T07:44:44.132Z,84.00
2017-12-30T07:47:11.595Z,84.50
2017-12-30T07:49:39.054Z,85.30
2017-12-30T07:52:06.502Z,85.30
2017-12-30T07:54:33.953Z,85.40
2017-12-30T07:57:01.408Z,86.60
2017-12-30T07:59:28.862Z,86.70
2017-12-30T08:01:56.322Z,87.40
2017-12-30T08:04:23.828Z,87.50
2017-12-30T08:06:51.272Z,87.60
2017-12-30T08:09:18.775Z,86.90
2017-12-30T08:11:46.227Z,87.30
2017-12-30T08:14:13.688Z,87.80
2017-12-30T08:16:41.147Z,88.10
2017-12-30T08:19:08.604Z,88.00
2017-12-30T08:21:36.054Z,88.60
2017-12-30T08:24:03.503Z,89.60
2017-12-30T08:26:30.963Z,89.60
2017-12-30T08:28:58.418Z,89.80
2017-12-30T08:31:26.670Z,90.00
2017-12-30T08:33:54.171Z,90.40
2017-12-30T08:36:21.625Z,90.30
2017-12-30T08:38:49.090Z,90.50
2017-12-30T08:41:16.551Z,90.70
2017-12-30T08:43:44.004Z,90.60
2017-12-30T08:46:11.465Z,90.20
2017-12-30T08:48:38.910Z,90.30
2017-12-30T08:51:06.359Z,90.00
2017-12-30T08:53:33.823Z,90.00
2017-12-30T08:56:01.275Z,89.60
2017-12-30T08:58:29.729Z,89.50
2017-12-30T09:00:57.170Z,89.20
2017-12-30T09:03:24.628Z,89.50
2017-12-30T09:05:52.075Z,88.70
2017-12-30T09:08:19.530Z,88.40
2017-12-30T09:10:46.975Z,88.50
2017-12-30T09:13:15.207Z,87.70
2017-12-30T09:15:42.664Z,87.70
2017-12-30T09:18:10.135Z,87.80
2017-12-30T09:20:37.593Z,87.10
2017-12-30T09:23:05.047Z,87.30
2017-12-30T09:25:32.504Z,86.50
2017-12-30T09:27:59.991Z,86.90
2017-12-30T09:30:27.964Z,87.40
2017-12-30T09:32:55.427Z,86.80
2017-12-30T09:35:22.879Z,86.60
2017-12-30T09:37:50.339Z,86.90
2017-12-30T09:40:17.791Z,85.80
2017-12-30T09:42:45.238Z,86.30
2017-12-30T09:45:13.454Z,85.70
2017-12-30T09:47:40.911Z,85.60
2017-12-30T09:50:08.372Z,85.60
2017-12-30T09:52:35.828Z,85.90
2017-12-30T09:55:03.287Z,85.50
2017-12-30T09:57:30.747Z,84.90
2017-12-30T09:59:58.204Z,84.60
2017-12-30T10:02:25.664Z,84.80
2017-12-30T10:04:53.115Z,84.20
2017-12-30T10:07:20.579Z,84.40
2017-12-30T10:09:48.056Z,85.70
2017-12-30T10:12:15.503Z,85.60
2017-12-30T10:14:42.955Z,85.80
2017-12-30T10:17:10.408Z,86.90
2017-12-30T10:19:37.867Z,86.30
2017-12-30T10:22:05.323Z,86.00
2017-12-30T10:24:32.780Z,84.70
2017-12-30T10:27:00.259Z,84.10
2017-12-30T10:29:28.478Z,84.50
2017-12-30T10:31:55.922Z,84.50
2017-12-30T10:34:23.363Z,85.60
2017-12-30T10:36:50.804Z,84.10
2017-12-30T10:39:19.040Z,85.70
2017-12-30T10:41:47.031Z,85.70
2017-12-30T10:44:14.474Z,85.80
2017-12-30T10:46:41.949Z,86.30
2017-12-30T10:49:09.399Z,87.00
2017-12-30T10:51:36.859Z,84.40
2017-12-30T10:54:04.309Z,82.60
2017-12-30T10:56:31.765Z,85.10
2017-12-30T10:58:59.202Z,84.10
2017-12-30T11:01:26.667Z,84.70
2017-12-30T11:03:54.124Z,83.00
2017-12-30T11:06:21.571Z,81.00
2017-12-30T11:08:49.041Z,81.20
2017-12-30T11:11:16.476Z,81.40
2017-12-30T11:13:43.931Z,80.70
2017-12-30T11:16:11.383Z,80.20
2017-12-30T11:18:38.823Z,79.50
2017-12-30T11:21:06.279Z,79.70
2017-12-30T11:23:33.718Z,81.40
2017-12-30T11:26:01.167Z,80.70
2017-12-30T11:28:28.623Z,80.50
2017-12-30T11:30:56.070Z,80.30
2017-12-30T11:33:24.275Z,80.40
2017-12-30T11:35:51.730Z,80.40
2017-12-30T11:38:19.187Z,79.40
2017-12-30T11:40:46.640Z,79.70
2017-12-30T11:43:14.086Z,80.00
2017-12-30T11:45:42.295Z,80.30
2017-12-30T11:48:09.747Z,80.00
2017-12-30T11:50:37.223Z,79.70
2017-12-30T11:53:04.752Z,80.20
2017-12-30T11:55:32.203Z,79.70
2017-12-30T11:57:59.711Z,79.80
2017-12-30T12:00:27.935Z,80.30
2017-12-30T12:02:55.420Z,80.30
2017-12-30T12:05:22.871Z,80.30
2017-12-30T12:07:50.339Z,80.60
2017-12-30T12:10:17.787Z,80.30
2017-12-30T12:12:45.241Z,80.50
2017-12-30T12:15:12.691Z,80.50
2017-12-30T12:17:40.147Z,80.70
2017-12-30T12:20:07.700Z,80.50
2017-12-30T12:22:35.141Z,80.60
2017-12-30T12:25:02.620Z,79.10
2017-12-30T12:27:30.077Z,79.40
2017-12-30T12:29:57.528Z,79.50
2017-12-30T12:32:24.995Z,79.00
2017-12-30T12:34:52.438Z,78.90
2017-12-30T12:37:19.891Z,79.60
2017-12-30T12:39:47.339Z,79.90
2017-12-30T12:42:14.831Z,79.80
2017-12-30T12:44:42.287Z,80.00
2017-12-30T12:47:09.737Z,80.00
2017-12-30T12:49:37.180Z,80.40
2017-12-30T12:52:04.632Z,80.30
2017-12-30T12:54:32.092Z,80.70
2017-12-30T12:56:59.536Z,80.80
2017-12-30T12:59:26.983Z,80.40
2017-12-30T13:01:54.435Z,80.60
2017-12-30T13:04:21.995Z,80.40
2017-12-30T13:06:49.442Z,80.50
2017-12-30T13:09:16.892Z,81.00
2017-12-30T13:11:44.373Z,81.00
2017-12-30T13:14:11.814Z,81.20
2017-12-30T13:16:39.255Z,81.20
2017-12-30T13:19:06.703Z,80.90
2017-12-30T13:21:34.152Z,81.20
2017-12-30T13:24:02.384Z,81.50
2017-12-30T13:26:33.271Z,80.80
2017-12-30T13:28:57.291Z,80.80
2017-12-30T13:31:24.740Z,81.20
2017-12-30T13:33:52.200Z,80.90
2017-12-30T13:36:19.696Z,80.90
2017-12-30T13:38:47.141Z,81.50
2017-12-30T13:41:14.589Z,81.00
2017-12-30T13:43:42.043Z,81.00
2017-12-30T13:46:09.498Z,80.80
2017-12-30T13:48:36.989Z,80.60
2017-12-30T13:51:05.199Z,81.30
2017-12-30T13:53:32.651Z,81.30
2017-12-30T13:56:00.150Z,81.40
2017-12-30T13:58:27.632Z,80.80
2017-12-30T14:00:55.844Z,80.90
2017-12-30T14:03:23.288Z,80.90
2017-12-30T14:05:50.727Z,81.00
2017-12-30T14:08:18.172Z,81.20
2017-12-30T14:10:46.395Z,81.10
2017-12-30T14:13:13.844Z,81.10
2017-12-30T14:15:41.297Z,81.10
2017-12-30T14:18:08.790Z,81.20
2017-12-30T14:20:36.245Z,80.80
2017-12-30T14:23:03.724Z,80.70
2017-12-30T14:25:31.978Z,81.00
2017-12-30T14:27:59.409Z,80.90
2017-12-30T14:30:26.857Z,81.00
2017-12-30T14:32:54.304Z,79.10
2017-12-30T14:35:21.763Z,79.00
2017-12-30T14:37:49.212Z,78.90
2017-12-30T14:40:16.670Z,79.00
2017-12-30T14:42:44.124Z,79.40
2017-12-30T14:45:11.611Z,78.90
2017-12-30T14:47:39.105Z,78.60
2017-12-30T14:50:07.320Z,78.50
2017-12-30T14:52:34.771Z,78.40
2017-12-30T14:55:02.226Z,78.70
2017-12-30T14:57:29.679Z,79.40
2017-12-30T14:59:57.145Z,78.70
2017-12-30T15:02:24.575Z,79.40
2017-12-30T15:04:52.065Z,80.80
2017-12-30T15:07:19.532Z,81.10
2017-12-30T15:09:46.997Z,81.60
2017-12-30T15:12:14.450Z,80.90
2017-12-30T15:14:41.991Z,81.40
2017-12-30T15:17:09.439Z,81.00
2017-12-30T15:19:36.892Z,81.20
2017-12-30T15:22:04.348Z,80.60
2017-12-30T15:24:31.802Z,80.10
2017-12-30T15:26:59.257Z,79.10
2017-12-30T15:29:26.714Z,78.20
2017-12-30T15:31:54.175Z,77.30
2017-12-30T15:34:21.629Z,76.80
2017-12-30T15:36:49.144Z,76.60
2017-12-30T15:39:16.639Z,76.30
2017-12-30T15:41:44.082Z,76.50
2017-12-30T15:44:11.522Z,76.00
2017-12-30T15:46:39.788Z,75.80
2017-12-30T15:49:07.235Z,75.80
2017-12-30T15:51:35.491Z,75.90
2017-12-30T15:54:02.977Z,75.90
2017-12-30T15:56:31.187Z,76.50
2017-12-30T15:58:58.646Z,76.50
2017-12-30T16:01:26.104Z,76.70
2017-12-30T16:03:53.558Z,76.70
2017-12-30T16:06:21.010Z,76.80
2017-12-30T16:08:48.466Z,76.80
2017-12-30T16:11:15.967Z,76.70
2017-12-30T16:13:43.418Z,76.40
2017-12-30T16:16:11.407Z,76.50
2017-12-30T16:18:39.670Z,76.40
2017-12-30T16:21:07.430Z,76.20
2017-12-30T16:23:35.674Z,76.20
2017-12-30T16:26:03.369Z,76.10
2017-12-30T16:28:31.705Z,76.30
2017-12-30T16:30:59.857Z,76.40
2017-12-30T16:33:27.704Z,76.50
2017-12-30T16:35:55.215Z,76.40
2017-12-30T16:38:22.704Z,75.80
2017-12-30T16:40:50.163Z,75.90
2017-12-30T16:43:17.608Z,75.80
2017-12-30T16:45:45.074Z,75.50
2017-12-30T16:48:12.518Z,75.20
2017-12-30T16:50:39.959Z,75.30
2017-12-30T16:53:07.419Z,74.70
2017-12-30T16:55:34.966Z,74.90
2017-12-30T16:58:02.575Z,74.80
2017-12-30T17:00:30.795Z,74.00
2017-12-30T17:02:58.257Z,73.90
2017-12-30T17:05:25.698Z,73.90
2017-12-30T17:07:53.194Z,73.80
2017-12-30T17:10:20.643Z,73.70
2017-12-30T17:12:48.136Z,73.70
2017-12-30T17:15:16.357Z,74.10
2017-12-30T17:17:43.807Z,74.10
2017-12-30T17:20:11.298Z,74.00
2017-12-30T17:22:38.773Z,74.80
2017-12-30T17:25:06.986Z,74.00
2017-12-30T17:27:35.199Z,74.00
2017-12-30T17:30:02.690Z,74.00
2017-12-30T17:32:30.949Z,73.30
2017-12-30T17:34:59.164Z,72.40
2017-12-30T17:37:26.615Z,72.30
2017-12-30T17:39:54.077Z,72.10
2017-12-30T17:42:21.532Z,71.50
2017-12-30T17:44:49.016Z,71.20
2017-12-30T17:47:16.504Z,71.00
2017-12-30T17:49:44.722Z,71.40
2017-12-30T17:52:12.208Z,71.40
2017-12-30T17:54:39.650Z,71.40
2017-12-30T17:57:07.146Z,71.10
2017-12-30T17:59:34.641Z,70.40
2017-12-30T18:02:02.145Z,70.50
2017-12-30T18:04:29.645Z,70.40
2017-12-30T18:06:57.138Z,70.30
2017-12-30T18:09:24.627Z,70.80
2017-12-30T18:11:52.127Z,70.80
2017-12-30T18:14:19.622Z,71.90
2017-12-30T18:16:47.122Z,71.50
2017-12-30T18:19:15.365Z,71.60
2017-12-30T18:21:42.866Z,71.60
2017-12-30T18:24:10.370Z,72.00
2017-12-30T18:26:37.871Z,72.20
2017-12-30T18:29:05.320Z,72.80
2017-12-30T18:31:32.831Z,72.80
2017-12-30T18:34:00.317Z,73.10
2017-12-30T18:36:28.594Z,74.30
2017-12-30T18:38:56.806Z,74.10
2017-12-30T18:41:24.304Z,74.10
2017-12-30T18:43:52.606Z,74.50
2017-12-30T18:46:20.875Z,75.60
2017-12-30T18:48:48.370Z,75.60
2017-12-30T18:51:15.861Z,76.20
2017-12-30T18:53:43.340Z,76.40
2017-12-30T18:56:10.822Z,76.80
2017-12-30T18:58:38.312Z,77.70
2017-12-30T19:01:05.833Z,77.40
2017-12-30T19:03:34.030Z,77.50
2017-12-30T19:06:01.524Z,77.50
2017-12-30T19:08:29.016Z,77.60
2017-12-30T19:10:57.220Z,78.10
2017-12-30T19:13:24.713Z,78.10
2017-12-30T19:15:52.192Z,78.10
2017-12-30T19:18:20.466Z,78.50
2017-12-30T19:20:48.726Z,78.90
2017-12-30T19:23:16.221Z,78.90
2017-12-30T19:25:43.710Z,78.90
2017-12-30T19:28:11.266Z,79.00
2017-12-30T19:30:39.481Z,79.20
2017-12-30T19:33:06.983Z,79.20
2017-12-30T19:35:34.470Z,79.40
2017-12-30T19:38:01.969Z,79.60
2017-12-30T19:40:29.458Z,79.50
2017-12-30T19:42:56.959Z,79.40
2017-12-30T19:45:24.443Z,79.40
2017-12-30T19:47:52.710Z,79.30
2017-12-30T19:50:20.962Z,79.40
2017-12-30T19:52:48.457Z,79.30
2017-12-30T19:55:16.714Z,80.20
2017-12-30T19:57:44.990Z,80.50
2017-12-30T20:00:13.246Z,80.80
2017-12-30T20:02:40.746Z,80.80
2017-12-30T20:05:08.233Z,81.60
2017-12-30T20:07:35.737Z,82.10
2017-12-30T20:10:03.990Z,82.70
2017-12-30T20:12:31.483Z,82.70
2017-12-30T20:14:58.972Z,83.20
2017-12-30T20:17:26.474Z,83.40
2017-12-30T20:19:53.961Z,83.70
2017-12-30T20:22:21.441Z,83.90
2017-12-30T20:24:48.954Z,84.20
2017-12-30T20:27:17.230Z,84.50
2017-12-30T20:29:45.506Z,84.60
2017-12-30T20:32:13.786Z,84.90
2017-12-30T20:34:42.061Z,85.10
2017-12-30T20:37:10.348Z,85.20
2017-12-30T20:39:37.870Z,85.20
2017-12-30T20:42:05.365Z,85.70
2017-12-30T20:44:32.869Z,85.50
2017-12-30T20:47:00.366Z,85.60
2017-12-30T20:49:27.875Z,85.70
2017-12-30T20:51:55.371Z,85.30
2017-12-30T20:54:23.705Z,85.50
2017-12-30T20:56:51.154Z,85.40
2017-12-30T20:59:18.645Z,85.40
2017-12-30T21:01:46.138Z,85.50
2017-12-30T21:04:13.650Z,85.60
2017-12-30T21:06:41.134Z,85.60
2017-12-30T21:09:09.411Z,85.60
2017-12-30T21:11:36.914Z,85.50
2017-12-30T21:14:04.421Z,85.50
2017-12-30T21:16:32.710Z,85.20
2017-12-30T21:19:00.970Z,85.00
2017-12-30T21:21:29.246Z,85.40
2017-12-30T21:23:57.523Z,86.00
2017-12-30T21:26:25.797Z,85.50
2017-12-30T21:28:54.066Z,85.70
2017-12-30T21:31:21.605Z,85.60
2017-12-30T21:33:49.114Z,85.80
2017-12-30T21:36:16.614Z,85.70
2017-12-30T21:38:44.110Z,85.50
2017-12-30T21:41:12.375Z,85.80
2017-12-30T21:43:40.630Z,86.10
2017-12-30T21:46:08.136Z,86.00
2017-12-30T21:48:35.635Z,86.10
2017-12-30T21:51:03.137Z,86.10
2017-12-30T21:53:31.399Z,86.00
2017-12-30T21:55:59.674Z,85.90
2017-12-30T21:58:27.929Z,85.80
2017-12-30T22:00:55.423Z,85.70
2017-12-30T22:03:22.923Z,85.70
2017-12-30T22:05:50.422Z,85.80
2017-12-30T22:08:18.681Z,85.70
2017-12-30T22:10:46.186Z,85.70
2017-12-30T22:13:13.683Z,85.80
2017-12-30T22:15:41.186Z,85.90
2017-12-30T22:18:08.677Z,85.90
2017-12-30T22:20:36.181Z,85.80
2017-12-30T22:23:04.439Z,85.30
2017-12-30T22:25:31.929Z,85.30
2017-12-30T22:28:00.179Z,85.50
2017-12-30T22:30:27.678Z,85.30
2017-12-30T22:32:55.169Z,85.60
2017-12-30T22:35:22.653Z,85.30
2017-12-30T22:37:50.914Z,85.20
2017-12-30T22:40:18.855Z,85.20
2017-12-30T22:42:46.339Z,85.00
2017-12-30T22:45:13.861Z,85.10
2017-12-30T22:47:41.350Z,85.00
2017-12-30T22:50:08.838Z,85.40
2017-12-30T22:52:37.102Z,84.30
2017-12-30T22:55:05.363Z,84.30
2017-12-30T22:57:32.860Z,84.20
2017-12-30T23:00:00.350Z,83.80
2017-12-30T23:02:27.846Z,83.90
2017-12-30T23:04:55.325Z,83.40
2017-12-30T23:07:22.823Z,83.40
2017-12-30T23:09:50.318Z,83.40
2017-12-30T23:12:18.594Z,82.70
2017-12-30T23:14:46.850Z,82.20
2017-12-30T23:17:15.070Z,82.20
2017-12-30T23:19:42.583Z,81.80
2017-12-30T23:22:10.075Z,81.40
2017-12-30T23:24:38.335Z,82.00
2017-12-30T23:27:06.641Z,81.90
2017-12-30T23:29:34.114Z,81.90
2017-12-30T23:32:02.386Z,81.40
2017-12-30T23:34:29.885Z,81.50
2017-12-30T23:36:57.378Z,81.10
2017-12-30T23:39:24.875Z,80.70
2017-12-30T23:41:52.382Z,80.90
2017-12-30T23:44:20.635Z,80.80
2017-12-30T23:46:48.134Z,80.80
2017-12-30T23:49:15.646Z,81.80
2017-12-30T23:51:43.138Z,80.70
2017-12-30T23:54:10.628Z,80.60
2017-12-30T23:56:38.124Z,80.10
2017-12-30T23:59:05.600Z,79.90
